createdAt,value
2023-01-28T00:00:47.733Z,102954.47
2023-01-28T00:02:49.929Z,102952.81
2023-01-28T00:04:52.238Z,102940.81
2023-01-28T00:06:54.119Z,102946.81
2023-01-28T00:08:56.052Z,102954.16
2023-01-28T00:11:00.854Z,102958.16
2023-01-28T00:13:02.748Z,102957.72
2023-01-28T00:15:05.117Z,102953.28
2023-01-28T00:17:07.014Z,102949.47
2023-01-28T00:19:09.441Z,102956.94
2023-01-28T00:21:13.590Z,102955.03
2023-01-28T00:23:15.387Z,102955.03
2023-01-28T00:25:17.495Z,102949.59
2023-01-28T00:27:19.427Z,102950.50
2023-01-28T00:29:21.329Z,102952.59
2023-01-28T00:31:25.863Z,102951.91
2023-01-28T00:33:29.552Z,102953.59
2023-01-28T00:35:31.425Z,102950.38
2023-01-28T00:37:33.394Z,102947.06
2023-01-28T00:39:35.254Z,102937.72
2023-01-28T00:41:37.667Z,102947.06
2023-01-28T00:43:40.934Z,102946.38
2023-01-28T00:45:42.785Z,102942.34
2023-01-28T00:47:45.438Z,102946.69
2023-01-28T00:49:47.297Z,102945.91
2023-01-28T00:51:49.193Z,102940.78
2023-01-28T00:53:51.146Z,102940.78
2023-01-28T00:55:53.186Z,102941.56
2023-01-28T00:57:55.067Z,102933.78
2023-01-28T00:59:57.041Z,102930.13
2023-01-28T01:02:12.358Z,102928.00
2023-01-28T01:04:14.372Z,102937.34
2023-01-28T01:06:16.845Z,102945.25
2023-01-28T01:08:19.175Z,102941.03
2023-01-28T01:10:21.042Z,102946.34
2023-01-28T01:12:22.980Z,102955.72
2023-01-28T01:14:24.774Z,102937.47
2023-01-28T01:16:29.388Z,102945.91
2023-01-28T01:18:31.221Z,102945.16
2023-01-28T01:20:33.538Z,102942.81
2023-01-28T01:22:36.614Z,102946.81
2023-01-28T01:24:38.417Z,102942.34
2023-01-28T01:26:40.245Z,102943.03
2023-01-28T01:28:42.473Z,102945.69
2023-01-28T01:30:44.357Z,102942.47
2023-01-28T01:32:46.277Z,102932.78
2023-01-28T01:34:48.383Z,102941.25
2023-01-28T01:36:50.250Z,102945.38
2023-01-28T01:38:55.352Z,102943.50
2023-01-28T01:40:59.618Z,102946.94
2023-01-28T01:43:01.527Z,102944.38
2023-01-28T01:45:06.142Z,102939.47
2023-01-28T01:47:09.823Z,102938.00
2023-01-28T01:49:25.167Z,102936.34
2023-01-28T01:51:31.546Z,102936.47
2023-01-28T01:53:33.505Z,102937.13
2023-01-28T01:55:38.337Z,102936.22
2023-01-28T01:57:40.788Z,102937.91
2023-01-28T01:59:44.004Z,102938.91
2023-01-28T02:01:46.119Z,102944.16
2023-01-28T02:03:55.456Z,102952.03
2023-01-28T02:05:57.297Z,102945.03
2023-01-28T02:08:19.813Z,102940.81
2023-01-28T02:10:23.531Z,102941.91
2023-01-28T02:12:32.176Z,102948.78
2023-01-28T02:14:38.819Z,102939.66
2023-01-28T02:16:41.086Z,102943.69
2023-01-28T02:18:43.521Z,102955.91
2023-01-28T02:20:45.742Z,102947.22
2023-01-28T02:23:06.556Z,102945.91
2023-01-28T02:25:19.686Z,102961.91
2023-01-28T02:27:37.201Z,102956.13
2023-01-28T02:29:48.307Z,102946.25
2023-01-28T02:31:59.275Z,102955.13
2023-01-28T02:34:20.709Z,102953.91
2023-01-28T02:36:23.221Z,102953.34
2023-01-28T02:38:37.753Z,102948.78
2023-01-28T02:40:53.394Z,102946.25
2023-01-28T02:42:55.403Z,102949.28
2023-01-28T02:44:57.333Z,102944.91
2023-01-28T02:47:08.416Z,102944.00
2023-01-28T02:49:16.553Z,102951.81
2023-01-28T02:51:34.776Z,102952.03
2023-01-28T02:53:45.366Z,102956.69
2023-01-28T02:55:57.546Z,102952.72
2023-01-28T02:58:10.802Z,102958.94
2023-01-28T03:00:18.728Z,102961.50
2023-01-28T03:02:28.566Z,102968.16
2023-01-28T03:04:36.137Z,102964.72
2023-01-28T03:06:44.487Z,102972.81
2023-01-28T03:09:01.249Z,102974.38
2023-01-28T03:11:12.355Z,102967.50
2023-01-28T03:13:24.042Z,102973.41
2023-01-28T03:15:43.486Z,102975.16
2023-01-28T03:18:04.924Z,102974.38
2023-01-28T03:20:17.446Z,102978.19
2023-01-28T03:22:30.021Z,102973.28
2023-01-28T03:24:48.606Z,102969.16
2023-01-28T03:27:12.276Z,102966.50
2023-01-28T03:29:25.667Z,102981.50
2023-01-28T03:31:37.536Z,102978.41
2023-01-28T03:33:50.898Z,102974.19
2023-01-28T03:36:02.469Z,102977.28
2023-01-28T03:38:18.291Z,102972.16
2023-01-28T03:40:20.326Z,102977.53
2023-01-28T03:42:22.172Z,102983.41
2023-01-28T03:44:35.327Z,102981.06
2023-01-28T03:46:39.735Z,102986.09
2023-01-28T03:48:42.036Z,102991.53
2023-01-28T03:50:43.985Z,102985.31
2023-01-28T03:52:45.917Z,102984.63
2023-01-28T03:54:48.750Z,102984.75
2023-01-28T03:56:50.589Z,102985.75
2023-01-28T03:58:54.249Z,102986.19
2023-01-28T04:00:56.287Z,102987.97
2023-01-28T04:02:58.292Z,102984.63
2023-01-28T04:05:00.810Z,102986.41
2023-01-28T04:07:02.692Z,102998.09
2023-01-28T04:09:06.095Z,102990.44
2023-01-28T04:11:17.259Z,102988.88
2023-01-28T04:13:19.347Z,102988.41
2023-01-28T04:15:21.186Z,102993.63
2023-01-28T04:17:23.323Z,102989.41
2023-01-28T04:19:25.971Z,102996.31
2023-01-28T04:21:27.787Z,102994.50
2023-01-28T04:23:30.723Z,102994.31
2023-01-28T04:25:32.816Z,102987.41
2023-01-28T04:27:34.687Z,102984.06
2023-01-28T04:29:36.477Z,102989.28
2023-01-28T04:31:38.387Z,102989.75
2023-01-28T04:33:40.214Z,102989.66
2023-01-28T04:35:42.206Z,102997.44
2023-01-28T04:37:44.172Z,102999.22
2023-01-28T04:39:46.132Z,102997.75
2023-01-28T04:41:47.921Z,102994.41
2023-01-28T04:43:50.063Z,102993.09
2023-01-28T04:45:51.906Z,102992.22
2023-01-28T04:47:53.781Z,102987.72
2023-01-28T04:49:55.730Z,102987.53
2023-01-28T04:51:57.602Z,102980.84
2023-01-28T04:53:59.391Z,102979.94
2023-01-28T04:56:01.301Z,102986.97
2023-01-28T04:58:03.743Z,102987.72
2023-01-28T05:00:06.669Z,102984.53
2023-01-28T05:02:08.594Z,102983.19
2023-01-28T05:04:10.441Z,102979.75
2023-01-28T05:06:12.431Z,102973.06
2023-01-28T05:08:14.511Z,102973.06
2023-01-28T05:10:16.791Z,102969.81
2023-01-28T05:12:20.923Z,102972.53
2023-01-28T05:14:22.737Z,102976.84
2023-01-28T05:16:24.573Z,102979.41
2023-01-28T05:18:26.377Z,102983.66
2023-01-28T05:20:28.191Z,102978.38
2023-01-28T05:22:30.046Z,102975.72
2023-01-28T05:24:31.958Z,102970.97
2023-01-28T05:26:34.105Z,102972.38
2023-01-28T05:28:36.191Z,102971.84
2023-01-28T05:30:39.329Z,102977.63
2023-01-28T05:32:41.163Z,102979.94
2023-01-28T05:34:43.079Z,102979.63
2023-01-28T05:36:44.886Z,102982.41
2023-01-28T05:38:46.725Z,102981.50
2023-01-28T05:40:49.376Z,102983.41
2023-01-28T05:42:51.177Z,102976.50
2023-01-28T05:44:53.061Z,102971.97
2023-01-28T05:46:54.922Z,102975.03
2023-01-28T05:48:56.750Z,102975.03
2023-01-28T05:50:58.811Z,102969.03
2023-01-28T05:53:00.711Z,102976.97
2023-01-28T05:55:03.126Z,102977.19
2023-01-28T05:57:05.025Z,102974.06
2023-01-28T05:59:06.956Z,102985.06
2023-01-28T06:01:08.771Z,102985.84
2023-01-28T06:03:10.777Z,102986.16
2023-01-28T06:05:12.653Z,102998.22
2023-01-28T06:07:15.976Z,103001.09
2023-01-28T06:09:17.742Z,102999.88
2023-01-28T06:11:19.969Z,102991.53
2023-01-28T06:13:21.857Z,102986.94
2023-01-28T06:15:23.863Z,102994.28
2023-01-28T06:17:25.700Z,102994.63
2023-01-28T06:19:27.522Z,102989.28
2023-01-28T06:21:30.293Z,102989.84
2023-01-28T06:23:32.226Z,102996.19
2023-01-28T06:25:34.022Z,102993.72
2023-01-28T06:27:35.915Z,102986.72
2023-01-28T06:29:37.784Z,102991.94
2023-01-28T06:31:39.571Z,102992.41
2023-01-28T06:33:41.410Z,102988.09
2023-01-28T06:35:43.302Z,102999.88
2023-01-28T06:37:45.679Z,102996.19
2023-01-28T06:39:47.573Z,103010.09
2023-01-28T06:41:50.688Z,103004.53
2023-01-28T06:43:52.785Z,102996.53
2023-01-28T06:45:55.975Z,103001.31
2023-01-28T06:47:57.870Z,103003.97
2023-01-28T06:49:59.708Z,103004.53
2023-01-28T06:52:01.554Z,103005.31
2023-01-28T06:54:03.455Z,103000.53
2023-01-28T06:56:06.046Z,103004.44
2023-01-28T06:58:08.103Z,103007.97
2023-01-28T07:00:14.197Z,103013.09
2023-01-28T07:02:16.202Z,103016.13
2023-01-28T07:04:18.067Z,103004.63
2023-01-28T07:06:19.895Z,103004.31
2023-01-28T07:08:21.753Z,103006.41
2023-01-28T07:10:23.587Z,103010.31
2023-01-28T07:12:25.378Z,103013.88
2023-01-28T07:14:27.151Z,103014.00
2023-01-28T07:16:29.039Z,103016.22
2023-01-28T07:18:31.403Z,103019.66
2023-01-28T07:20:33.231Z,103008.88
2023-01-28T07:22:35.200Z,103016.44
2023-01-28T07:24:36.998Z,103015.66
2023-01-28T07:26:38.794Z,103020.47
2023-01-28T07:28:40.578Z,103010.66
2023-01-28T07:30:42.486Z,103015.44
2023-01-28T07:32:45.297Z,103018.69
2023-01-28T07:34:47.089Z,103016.91
2023-01-28T07:36:48.887Z,103013.00
2023-01-28T07:38:50.679Z,103006.66
2023-01-28T07:40:52.522Z,103005.31
2023-01-28T07:42:56.369Z,103008.56
2023-01-28T07:44:58.297Z,103011.31
2023-01-28T07:47:00.233Z,103005.22
2023-01-28T07:49:02.662Z,103008.53
2023-01-28T07:51:04.759Z,103018.66
2023-01-28T07:53:08.916Z,103016.44
2023-01-28T07:55:15.650Z,103010.75
2023-01-28T07:57:23.593Z,103018.56
2023-01-28T07:59:25.726Z,103028.22
2023-01-28T08:01:27.905Z,103027.56
2023-01-28T08:03:29.990Z,103026.00
2023-01-28T08:05:42.282Z,103028.34
2023-01-28T08:07:44.952Z,103025.47
2023-01-28T08:09:47.036Z,103027.66
2023-01-28T08:11:49.033Z,103016.66
2023-01-28T08:13:51.155Z,103020.88
2023-01-28T08:15:56.870Z,103017.78
2023-01-28T08:18:00.177Z,103013.88
2023-01-28T08:20:02.407Z,103016.56
2023-01-28T08:22:04.629Z,103020.25
2023-01-28T08:24:07.314Z,103019.78
2023-01-28T08:26:09.852Z,103019.88
2023-01-28T08:28:13.771Z,103018.00
2023-01-28T08:30:16.284Z,103021.66
2023-01-28T08:35:36.047Z,103014.56
2023-01-28T08:37:38.587Z,103020.78
2023-01-28T08:39:40.727Z,103024.78
2023-01-28T08:41:42.812Z,103024.22
2023-01-28T08:43:45.017Z,103031.25
2023-01-28T08:45:47.269Z,103030.59
2023-01-28T08:47:54.880Z,103027.91
2023-01-28T08:49:57.006Z,103027.34
2023-01-28T08:51:59.206Z,103029.13
2023-01-28T08:54:02.536Z,103029.22
2023-01-28T08:56:05.318Z,103031.00
2023-01-28T08:58:11.551Z,103041.13
2023-01-28T09:00:15.022Z,103038.25
2023-01-28T09:02:30.836Z,103030.59
2023-01-28T09:04:33.831Z,103036.69
2023-01-28T09:06:36.002Z,103044.59
2023-01-28T09:08:38.324Z,103053.38
2023-01-28T09:10:42.382Z,103044.16
2023-01-28T09:12:44.834Z,103049.72
2023-01-28T09:14:47.023Z,103043.03
2023-01-28T09:16:49.221Z,103047.59
2023-01-28T09:18:52.137Z,103055.38
2023-01-28T09:20:54.230Z,103053.41
2023-01-28T09:22:56.423Z,103063.28
2023-01-28T09:24:58.703Z,103062.75
2023-01-28T09:27:01.030Z,103066.31
2023-01-28T09:29:03.152Z,103064.22
2023-01-28T09:31:08.509Z,103064.34
2023-01-28T09:33:10.902Z,103071.13
2023-01-28T09:35:13.273Z,103062.66
2023-01-28T09:37:15.882Z,103070.44
2023-01-28T09:39:18.421Z,103069.88
2023-01-28T09:41:27.535Z,103070.09
2023-01-28T09:43:33.187Z,103070.31
2023-01-28T09:45:47.377Z,103067.84
2023-01-28T09:47:54.415Z,103064.84
2023-01-28T09:50:00.769Z,103070.75
2023-01-28T09:52:03.778Z,103065.63
2023-01-28T09:54:20.386Z,103069.09
2023-01-28T09:56:31.120Z,103072.75
2023-01-28T09:58:34.710Z,103060.72
2023-01-28T10:00:47.603Z,103063.31
2023-01-28T10:02:57.787Z,103065.41
2023-01-28T10:05:16.956Z,103064.97
2023-01-28T10:07:30.073Z,103054.25
2023-01-28T10:09:46.197Z,103045.94
2023-01-28T10:11:50.153Z,103049.00
2023-01-28T10:14:10.145Z,103058.50
2023-01-28T10:16:28.402Z,103055.50
2023-01-28T10:18:41.300Z,103050.03
2023-01-28T10:20:50.015Z,103045.34
2023-01-28T10:23:00.968Z,103057.06
2023-01-28T10:25:07.003Z,103058.13
2023-01-28T10:27:17.057Z,103059.47
2023-01-28T10:29:24.456Z,103060.66
2023-01-28T10:31:34.867Z,103051.78
2023-01-28T10:33:40.376Z,103062.03
2023-01-28T10:35:44.944Z,103060.34
2023-01-28T10:37:48.955Z,103061.34
2023-01-28T10:39:55.123Z,103054.53
2023-01-28T10:41:58.822Z,103052.97
2023-01-28T10:44:01.449Z,103033.47
2023-01-28T10:46:22.664Z,103016.53
2023-01-28T10:48:29.868Z,103028.97
2023-01-28T10:50:32.605Z,103031.78
2023-01-28T10:52:35.041Z,103034.44
2023-01-28T10:54:37.272Z,103021.97
2023-01-28T10:56:39.339Z,103015.75
2023-01-28T10:59:02.694Z,103003.97
2023-01-28T11:01:08.144Z,102998.47
2023-01-28T11:03:18.949Z,103000.00
2023-01-28T11:05:25.830Z,102988.75
2023-01-28T11:07:27.917Z,102986.66
2023-01-28T11:09:33.862Z,102982.94
2023-01-28T11:11:36.113Z,102966.66
2023-01-28T11:13:50.418Z,102957.88
2023-01-28T11:15:57.272Z,102957.44
2023-01-28T11:18:03.005Z,102957.63
2023-01-28T11:20:14.238Z,102957.81
2023-01-28T11:22:26.292Z,102943.16
2023-01-28T11:24:32.444Z,102944.31
2023-01-28T11:26:38.821Z,102957.31
2023-01-28T11:28:43.163Z,102969.28
2023-01-28T11:30:53.210Z,102971.56
2023-01-28T11:33:05.397Z,102969.50
2023-01-28T11:35:08.886Z,102965.59
2023-01-28T11:37:16.395Z,102969.31
2023-01-28T11:39:26.197Z,102972.41
2023-01-28T11:41:32.684Z,102973.91
2023-01-28T11:43:34.593Z,102971.53
2023-01-28T11:45:48.855Z,102971.00
2023-01-28T11:48:03.418Z,102972.50
2023-01-28T11:50:05.821Z,102971.81
2023-01-28T11:52:21.202Z,102970.66
2023-01-28T11:54:33.430Z,102970.94
2023-01-28T11:56:45.673Z,102971.91
2023-01-28T11:58:51.132Z,102973.31
2023-01-28T12:01:04.729Z,102979.94
2023-01-28T12:03:10.466Z,102980.31
2023-01-28T12:05:19.894Z,102981.19
2023-01-28T12:07:41.297Z,102988.00
2023-01-28T12:09:57.103Z,102993.03
2023-01-28T12:12:09.100Z,102997.00
2023-01-28T12:14:18.175Z,102993.84
2023-01-28T12:16:28.135Z,102995.84
2023-01-28T12:18:42.369Z,102999.34
2023-01-28T12:20:55.333Z,103004.69
2023-01-28T12:23:05.689Z,102996.84
2023-01-28T12:25:14.968Z,102985.63
2023-01-28T12:27:27.280Z,102983.19
2023-01-28T12:29:39.708Z,102981.59
2023-01-28T12:32:01.343Z,102971.72
2023-01-28T12:34:31.469Z,102972.75
2023-01-28T12:36:49.222Z,102974.72
2023-01-28T12:39:00.793Z,102973.44
2023-01-28T12:41:12.220Z,102982.81
2023-01-28T12:43:26.688Z,102977.16
2023-01-28T12:45:32.919Z,102974.31
2023-01-28T12:47:39.224Z,102965.81
2023-01-28T12:49:45.796Z,102971.44
2023-01-28T12:52:06.069Z,102966.03
2023-01-28T12:54:19.504Z,102963.97
2023-01-28T12:56:30.791Z,102946.09
2023-01-28T12:58:44.769Z,102947.38
2023-01-28T13:00:51.549Z,102942.81
2023-01-28T13:03:10.328Z,102939.09
2023-01-28T13:05:18.052Z,102932.84
2023-01-28T13:07:35.009Z,102931.34
2023-01-28T13:09:39.263Z,102929.69
2023-01-28T13:11:41.673Z,102933.22
2023-01-28T13:13:46.526Z,102935.00
2023-01-28T13:15:48.598Z,102933.22
2023-01-28T13:18:01.434Z,102940.03
2023-01-28T13:20:15.255Z,102929.69
2023-01-28T13:22:30.120Z,102927.91
2023-01-28T13:24:35.264Z,102923.34
2023-01-28T13:26:51.511Z,102908.66
2023-01-28T13:28:55.867Z,102917.44
2023-01-28T13:31:14.651Z,102917.25
2023-01-28T13:33:27.751Z,102920.38
2023-01-28T13:35:32.541Z,102917.63
2023-01-28T13:37:43.991Z,102913.47
2023-01-28T13:39:50.474Z,102912.69
2023-01-28T13:41:55.272Z,102908.34
2023-01-28T13:43:58.918Z,102907.47
2023-01-28T13:46:04.597Z,102910.50
2023-01-28T13:48:33.297Z,102907.06
2023-01-28T13:50:42.195Z,102905.47
2023-01-28T13:52:57.099Z,102905.38
2023-01-28T13:55:11.707Z,102905.50
2023-01-28T13:57:36.588Z,102903.06
2023-01-28T13:59:48.389Z,102901.84
2023-01-28T14:02:07.469Z,102892.66
2023-01-28T14:04:32.343Z,102891.97
2023-01-28T14:06:50.290Z,102898.47
2023-01-28T14:09:20.237Z,102903.78
2023-01-28T14:11:32.590Z,102893.03
2023-01-28T14:13:44.034Z,102896.00
2023-01-28T14:15:53.774Z,102893.34
2023-01-28T14:17:58.180Z,102886.81
2023-01-28T14:20:01.261Z,102886.75
2023-01-28T14:22:17.605Z,102889.50
2023-01-28T14:24:20.410Z,102883.19
2023-01-28T14:26:28.116Z,102881.94
2023-01-28T14:28:42.285Z,102887.44
2023-01-28T14:30:53.849Z,102890.03
2023-01-28T14:32:56.052Z,102892.22
2023-01-28T14:35:02.208Z,102891.91
2023-01-28T14:37:08.978Z,102887.06
2023-01-28T14:39:21.673Z,102886.47
2023-01-28T14:41:28.010Z,102885.97
2023-01-28T14:43:31.417Z,102888.31
2023-01-28T14:45:44.224Z,102892.56
2023-01-28T14:47:57.209Z,102888.81
2023-01-28T14:50:00.663Z,102903.41
2023-01-28T14:52:10.934Z,102901.47
2023-01-28T14:54:25.253Z,102918.63
2023-01-28T14:56:36.760Z,102930.78
2023-01-28T14:58:45.685Z,102930.06
2023-01-28T15:00:58.748Z,102928.03
2023-01-28T15:03:01.851Z,102932.44
2023-01-28T15:05:18.798Z,102933.06
2023-01-28T15:07:23.526Z,102935.13
2023-01-28T15:09:25.833Z,102939.53
2023-01-28T15:11:27.659Z,102936.31
2023-01-28T15:13:32.746Z,102935.41
2023-01-28T15:15:38.251Z,102941.91
2023-01-28T15:17:40.843Z,102929.94
2023-01-28T15:19:42.714Z,102940.13
2023-01-28T15:21:45.724Z,102932.84
2023-01-28T15:23:52.038Z,102929.09
2023-01-28T15:25:55.521Z,102936.50
2023-01-28T15:28:00.984Z,102929.28
2023-01-28T15:30:02.903Z,102929.69
2023-01-28T15:32:05.495Z,102929.19
2023-01-28T15:34:12.872Z,102925.16
2023-01-28T15:36:15.438Z,102922.47
2023-01-28T15:38:18.091Z,102926.13
2023-01-28T15:40:22.873Z,102931.25
2023-01-28T15:42:29.511Z,102928.09
2023-01-28T15:44:34.060Z,102921.38
2023-01-28T15:46:40.267Z,102919.53
2023-01-28T15:48:46.322Z,102918.06
2023-01-28T15:50:48.266Z,102913.81
2023-01-28T15:52:52.693Z,102912.03
2023-01-28T15:54:54.528Z,102904.03
2023-01-28T15:56:56.671Z,102899.41
2023-01-28T15:59:10.202Z,102900.19
2023-01-28T16:01:15.564Z,102900.19
2023-01-28T16:03:21.157Z,102908.00
2023-01-28T16:05:34.810Z,102903.44
2023-01-28T16:07:46.317Z,102903.72
2023-01-28T16:09:52.917Z,102901.06
2023-01-28T16:12:02.947Z,102898.59
2023-01-28T16:14:05.122Z,102903.72
2023-01-28T16:16:08.761Z,102899.38
2023-01-28T16:18:30.026Z,102901.06
2023-01-28T16:20:32.652Z,102897.91
2023-01-28T16:22:39.695Z,102900.50
2023-01-28T16:24:49.348Z,102895.22
2023-01-28T16:27:01.975Z,102897.72
2023-01-28T16:29:15.701Z,102900.97
2023-01-28T16:31:17.929Z,102910.44
2023-01-28T16:33:21.012Z,102917.97
2023-01-28T16:35:31.348Z,102913.72
2023-01-28T16:37:41.726Z,102908.59
2023-01-28T16:39:44.568Z,102917.88
2023-01-28T16:41:48.967Z,102918.75
2023-01-28T16:43:51.068Z,102924.69
2023-01-28T16:45:53.295Z,102916.84
2023-01-28T16:47:55.453Z,102917.88
2023-01-28T16:49:57.757Z,102915.19
2023-01-28T16:52:02.438Z,102911.44
2023-01-28T16:54:05.490Z,102917.56
2023-01-28T16:56:19.503Z,102912.50
2023-01-28T16:58:35.491Z,102923.56
2023-01-28T17:00:37.511Z,102922.59
2023-01-28T17:02:40.063Z,102938.19
2023-01-28T17:04:42.404Z,102938.19
2023-01-28T17:06:46.506Z,102945.59
2023-01-28T17:08:48.689Z,102937.28
2023-01-28T17:10:54.047Z,102947.28
2023-01-28T17:12:56.082Z,102949.84
2023-01-28T17:14:58.163Z,102953.38
2023-01-28T17:17:00.360Z,102961.88
2023-01-28T17:19:02.538Z,102951.81
2023-01-28T17:21:08.207Z,102950.81
2023-01-28T17:23:23.076Z,102948.06
2023-01-28T17:25:26.331Z,102954.09
2023-01-28T17:27:28.150Z,102949.84
2023-01-28T17:29:30.013Z,102947.28
2023-01-28T17:31:32.222Z,102954.78
2023-01-28T17:33:34.981Z,102952.78
2023-01-28T17:35:37.096Z,102957.63
2023-01-28T17:37:38.886Z,102961.47
2023-01-28T17:39:40.910Z,102953.69
2023-01-28T17:41:42.881Z,102952.97
2023-01-28T17:43:49.846Z,102952.00
2023-01-28T17:45:51.842Z,102952.09
2023-01-28T17:47:54.293Z,102953.69
2023-01-28T17:49:56.910Z,102959.50
2023-01-28T17:51:59.553Z,102957.31
2023-01-28T17:54:01.972Z,102955.44
2023-01-28T17:56:04.146Z,102962.16
2023-01-28T17:58:06.366Z,102967.38
2023-01-28T18:00:11.272Z,102955.53
2023-01-28T18:02:13.621Z,102958.00
2023-01-28T18:04:15.503Z,102960.56
2023-01-28T18:06:17.963Z,102961.56
2023-01-28T18:08:20.134Z,102964.72
2023-01-28T18:10:22.268Z,102959.69
2023-01-28T18:12:24.033Z,102956.50
2023-01-28T18:14:25.778Z,102960.06
2023-01-28T18:16:27.770Z,102952.19
2023-01-28T18:18:29.851Z,102954.94
2023-01-28T18:20:31.679Z,102963.03
2023-01-28T18:22:33.841Z,102968.44
2023-01-28T18:24:35.764Z,102970.09
2023-01-28T18:26:37.602Z,102967.03
2023-01-28T18:28:39.497Z,102971.09
2023-01-28T18:30:41.337Z,102968.81
2023-01-28T18:32:43.225Z,102969.50
2023-01-28T18:34:44.964Z,102968.16
2023-01-28T18:36:46.899Z,102969.31
2023-01-28T18:38:49.026Z,102966.66
2023-01-28T18:40:55.746Z,102966.66
2023-01-28T18:42:57.508Z,102959.94
2023-01-28T18:44:59.699Z,102968.16
2023-01-28T18:47:01.582Z,102962.00
2023-01-28T18:49:03.896Z,102965.97
2023-01-28T18:51:12.333Z,102970.09
2023-01-28T18:53:20.083Z,102968.44
2023-01-28T18:55:22.029Z,102970.31
2023-01-28T18:57:23.843Z,102973.84
2023-01-28T18:59:26.184Z,102972.44
2023-01-28T19:01:29.170Z,102962.41
2023-01-28T19:03:31.009Z,102964.75
2023-01-28T19:05:37.662Z,102960.53
2023-01-28T19:07:39.519Z,102962.63
2023-01-28T19:09:41.359Z,102960.66
2023-01-28T19:11:43.441Z,102958.19
2023-01-28T19:13:45.334Z,102956.59
2023-01-28T19:15:47.153Z,102960.84
2023-01-28T19:17:48.999Z,102959.13
2023-01-28T19:19:51.407Z,102960.03
2023-01-28T19:21:53.605Z,102961.81
2023-01-28T19:23:57.542Z,102958.44
2023-01-28T19:26:03.576Z,102942.28
2023-01-28T19:28:06.125Z,102952.00
2023-01-28T19:30:09.044Z,102948.09
2023-01-28T19:32:10.894Z,102944.22
2023-01-28T19:34:13.213Z,102943.34
2023-01-28T19:36:15.840Z,102939.50
2023-01-28T19:38:17.744Z,102937.41
2023-01-28T19:40:19.585Z,102935.09
2023-01-28T19:42:21.466Z,102931.13
2023-01-28T19:44:23.363Z,102929.44
2023-01-28T19:46:25.667Z,102934.38
2023-01-28T19:48:28.157Z,102941.09
2023-01-28T19:50:30.903Z,102934.16
2023-01-28T19:52:32.679Z,102932.38
2023-01-28T19:54:34.759Z,102933.50
2023-01-28T19:56:37.745Z,102934.28
2023-01-28T19:58:42.267Z,102924.59
2023-01-28T20:00:44.306Z,102933.28
2023-01-28T20:02:50.740Z,102940.06
2023-01-28T20:05:00.580Z,102939.19
2023-01-28T20:07:02.709Z,102938.41
2023-01-28T20:09:09.200Z,102942.88
2023-01-28T20:11:13.899Z,102948.00
2023-01-28T20:13:15.773Z,102950.16
2023-01-28T20:15:18.502Z,102954.63
2023-01-28T20:17:21.895Z,102951.38
2023-01-28T20:19:23.774Z,102953.16
2023-01-28T20:21:26.314Z,102954.81
2023-01-28T20:23:28.706Z,102951.47
2023-01-28T20:25:30.594Z,102944.66
2023-01-28T20:27:32.990Z,102951.19
2023-01-28T20:29:34.795Z,102943.88
2023-01-28T20:31:38.541Z,102954.03
2023-01-28T20:33:40.804Z,102952.44
2023-01-28T20:35:43.726Z,102951.00
2023-01-28T20:37:45.439Z,102947.41
2023-01-28T20:39:47.254Z,102955.34
2023-01-28T20:41:50.051Z,102961.44
2023-01-28T20:43:52.948Z,102956.69
2023-01-28T20:46:01.285Z,102963.59
2023-01-28T20:48:03.178Z,102963.50
2023-01-28T20:50:05.763Z,102961.91
2023-01-28T20:52:07.501Z,102956.41
2023-01-28T20:54:10.999Z,102964.13
2023-01-28T20:56:16.928Z,102961.06
2023-01-28T20:58:18.698Z,102972.50
2023-01-28T21:00:21.838Z,102969.16
2023-01-28T21:02:23.630Z,102976.06
2023-01-28T21:04:25.400Z,102969.84
2023-01-28T21:06:28.255Z,102966.69
2023-01-28T21:08:30.001Z,102958.09
2023-01-28T21:10:31.849Z,102964.22
2023-01-28T21:12:33.705Z,102953.47
2023-01-28T21:14:35.481Z,102949.94
2023-01-28T21:16:42.307Z,102956.84
2023-01-28T21:18:44.684Z,102956.03
2023-01-28T21:20:46.559Z,102950.72
2023-01-28T21:22:52.348Z,102954.28
2023-01-28T21:24:54.177Z,102954.19
2023-01-28T21:26:56.011Z,102945.47
2023-01-28T21:28:57.819Z,102940.94
2023-01-28T21:31:11.254Z,102940.84
2023-01-28T21:33:15.407Z,102948.53
2023-01-28T21:35:17.298Z,102936.88
2023-01-28T21:37:22.458Z,102945.47
2023-01-28T21:39:24.411Z,102945.69
2023-01-28T21:41:27.324Z,102953.38
2023-01-28T21:43:29.449Z,102955.34
2023-01-28T21:45:31.216Z,102953.38
2023-01-28T21:47:33.034Z,102950.41
2023-01-28T21:49:35.081Z,102949.13
2023-01-28T21:51:39.475Z,102950.59
2023-01-28T21:53:42.337Z,102949.81
2023-01-28T21:55:47.691Z,102949.00
2023-01-28T21:58:10.689Z,102943.97
2023-01-28T22:00:13.211Z,102946.25
2023-01-28T22:02:15.608Z,102943.13
2023-01-28T22:04:17.397Z,102945.47
2023-01-28T22:06:19.153Z,102942.19
2023-01-28T22:08:20.914Z,102940.13
2023-01-28T22:10:22.734Z,102933.22
2023-01-28T22:12:24.549Z,102938.53
2023-01-28T22:14:27.110Z,102932.44
2023-01-28T22:16:28.842Z,102937.94
2023-01-28T22:18:31.248Z,102937.94
2023-01-28T22:20:32.939Z,102940.50
2023-01-28T22:22:34.794Z,102941.50
2023-01-28T22:24:36.564Z,102941.91
2023-01-28T22:26:39.415Z,102944.66
2023-01-28T22:28:41.210Z,102945.56
2023-01-28T22:30:43.317Z,102938.19
2023-01-28T22:32:45.123Z,102932.88
2023-01-28T22:34:47.076Z,102937.50
2023-01-28T22:36:51.299Z,102936.78
2023-01-28T22:38:53.129Z,102937.50
2023-01-28T22:40:54.914Z,102934.22
2023-01-28T22:42:56.692Z,102932.53
2023-01-28T22:44:58.463Z,102933.06
2023-01-28T22:47:00.225Z,102939.16
2023-01-28T22:49:03.621Z,102946.97
2023-01-28T22:51:08.603Z,102945.97
2023-01-28T22:53:10.379Z,102951.81
2023-01-28T22:55:12.138Z,102963.41
2023-01-28T22:57:13.907Z,102961.75
2023-01-28T22:59:15.690Z,102958.28
2023-01-28T23:01:18.034Z,102953.84
2023-01-28T23:03:20.091Z,102937.94
2023-01-28T23:05:21.858Z,102932.44
2023-01-28T23:07:23.584Z,102924.31
2023-01-28T23:09:25.367Z,102919.00
2023-01-28T23:11:28.210Z,102919.19
2023-01-28T23:13:40.089Z,102908.94
2023-01-28T23:15:51.117Z,102899.38
2023-01-28T23:18:02.223Z,102899.03
2023-01-28T23:20:15.074Z,102895.50
2023-01-28T23:22:40.127Z,102893.13
2023-01-28T23:24:41.907Z,102888.59
2023-01-28T23:26:43.748Z,102895.06
2023-01-28T23:28:45.548Z,102897.47
2023-01-28T23:30:47.437Z,102888.00
2023-01-28T23:32:50.354Z,102889.88
2023-01-28T23:34:52.210Z,102887.44
2023-01-28T23:36:55.364Z,102885.03
2023-01-28T23:38:57.085Z,102878.31
2023-01-28T23:40:58.822Z,102873.03
2023-01-28T23:43:00.646Z,102870.63
2023-01-28T23:45:07.021Z,102875.47
2023-01-28T23:47:08.998Z,102875.97
2023-01-28T23:49:10.792Z,102875.88
2023-01-28T23:51:12.699Z,102876.56
2023-01-28T23:53:14.688Z,102871.63